sensor_id;sensor_type;location;lat;lon;timestamp;P1;durP1;ratioP1;P2;durP2;ratioP2
75156;SDS011;63736;50.076;8.198;2023-05-07T00:01:50;416.37;;;107.43;;
75156;SDS011;63736;50.076;8.198;2023-05-07T00:04:15;405.73;;;106.00;;
75156;SDS011;63736;50.076;8.198;2023-05-07T00:06:41;390.10;;;103.13;;
75156;SDS011;63736;50.076;8.198;2023-05-07T00:09:06;390.47;;;102.93;;
75156;SDS011;63736;50.076;8.198;2023-05-07T00:11:31;386.33;;;103.07;;
75156;SDS011;63736;50.076;8.198;2023-05-07T00:13:58;382.60;;;101.85;;
75156;SDS011;63736;50.076;8.198;2023-05-07T00:16:23;378.33;;;100.83;;
75156;SDS011;63736;50.076;8.198;2023-05-07T00:18:48;377.90;;;101.67;;
75156;SDS011;63736;50.076;8.198;2023-05-07T00:21:13;372.33;;;99.87;;
75156;SDS011;63736;50.076;8.198;2023-05-07T00:23:39;370.65;;;99.05;;
75156;SDS011;63736;50.076;8.198;2023-05-07T00:26:04;368.40;;;99.40;;
75156;SDS011;63736;50.076;8.198;2023-05-07T00:28:29;368.30;;;99.60;;
75156;SDS011;63736;50.076;8.198;2023-05-07T00:30:55;365.53;;;99.40;;
75156;SDS011;63736;50.076;8.198;2023-05-07T00:33:20;366.83;;;99.23;;
75156;SDS011;63736;50.076;8.198;2023-05-07T00:35:47;363.00;;;98.13;;
75156;SDS011;63736;50.076;8.198;2023-05-07T00:38:12;361.92;;;98.80;;
75156;SDS011;63736;50.076;8.198;2023-05-07T00:40:37;362.13;;;97.80;;
75156;SDS011;63736;50.076;8.198;2023-05-07T00:43:03;360.53;;;97.83;;
75156;SDS011;63736;50.076;8.198;2023-05-07T00:45:28;361.00;;;97.67;;
75156;SDS011;63736;50.076;8.198;2023-05-07T00:47:54;359.47;;;97.70;;
75156;SDS011;63736;50.076;8.198;2023-05-07T00:50:20;357.13;;;97.35;;
75156;SDS011;63736;50.076;8.198;2023-05-07T00:52:47;357.63;;;98.18;;
75156;SDS011;63736;50.076;8.198;2023-05-07T00:55:12;355.13;;;96.43;;
75156;SDS011;63736;50.076;8.198;2023-05-07T00:57:39;353.40;;;96.43;;
75156;SDS011;63736;50.076;8.198;2023-05-07T01:00:06;352.13;;;96.40;;
75156;SDS011;63736;50.076;8.198;2023-05-07T01:02:34;351.23;;;96.78;;
75156;SDS011;63736;50.076;8.198;2023-05-07T01:05:00;348.05;;;95.68;;
75156;SDS011;63736;50.076;8.198;2023-05-07T01:07:26;346.50;;;95.63;;
75156;SDS011;63736;50.076;8.198;2023-05-07T01:09:52;348.93;;;96.07;;
75156;SDS011;63736;50.076;8.198;2023-05-07T01:12:18;344.27;;;94.70;;
75156;SDS011;63736;50.076;8.198;2023-05-07T01:14:43;348.07;;;96.17;;
75156;SDS011;63736;50.076;8.198;2023-05-07T01:17:09;344.27;;;95.67;;
75156;SDS011;63736;50.076;8.198;2023-05-07T01:19:34;344.30;;;96.32;;
75156;SDS011;63736;50.076;8.198;2023-05-07T01:22:03;342.83;;;96.57;;
75156;SDS011;63736;50.076;8.198;2023-05-07T01:24:33;341.48;;;94.50;;
75156;SDS011;63736;50.076;8.198;2023-05-07T01:27:00;342.00;;;95.47;;
75156;SDS011;63736;50.076;8.198;2023-05-07T01:29:26;338.58;;;94.38;;
75156;SDS011;63736;50.076;8.198;2023-05-07T01:31:51;337.97;;;94.40;;
75156;SDS011;63736;50.076;8.198;2023-05-07T01:34:17;336.10;;;94.13;;
75156;SDS011;63736;50.076;8.198;2023-05-07T01:36:45;336.05;;;93.95;;
75156;SDS011;63736;50.076;8.198;2023-05-07T01:39:11;336.73;;;94.37;;
75156;SDS011;63736;50.076;8.198;2023-05-07T01:41:37;334.52;;;94.15;;
75156;SDS011;63736;50.076;8.198;2023-05-07T01:44:03;333.77;;;94.00;;
75156;SDS011;63736;50.076;8.198;2023-05-07T01:46:29;333.75;;;94.25;;
75156;SDS011;63736;50.076;8.198;2023-05-07T01:48:56;331.00;;;92.90;;
75156;SDS011;63736;50.076;8.198;2023-05-07T01:51:21;328.33;;;92.53;;
75156;SDS011;63736;50.076;8.198;2023-05-07T01:53:47;326.17;;;92.63;;
75156;SDS011;63736;50.076;8.198;2023-05-07T01:56:15;324.83;;;92.30;;
75156;SDS011;63736;50.076;8.198;2023-05-07T01:58:41;324.20;;;92.63;;
75156;SDS011;63736;50.076;8.198;2023-05-07T02:01:06;321.70;;;91.70;;
75156;SDS011;63736;50.076;8.198;2023-05-07T02:03:32;321.60;;;92.20;;
75156;SDS011;63736;50.076;8.198;2023-05-07T02:05:57;320.13;;;92.17;;
75156;SDS011;63736;50.076;8.198;2023-05-07T02:08:22;318.73;;;90.83;;
75156;SDS011;63736;50.076;8.198;2023-05-07T02:10:47;318.23;;;90.53;;
75156;SDS011;63736;50.076;8.198;2023-05-07T02:13:13;319.33;;;91.10;;
75156;SDS011;63736;50.076;8.198;2023-05-07T02:15:38;316.03;;;90.33;;
75156;SDS011;63736;50.076;8.198;2023-05-07T02:18:04;318.00;;;91.63;;
75156;SDS011;63736;50.076;8.198;2023-05-07T02:20:31;311.55;;;89.55;;
75156;SDS011;63736;50.076;8.198;2023-05-07T02:22:56;310.93;;;89.40;;
75156;SDS011;63736;50.076;8.198;2023-05-07T02:25:22;313.60;;;90.60;;
75156;SDS011;63736;50.076;8.198;2023-05-07T02:27:47;310.80;;;89.37;;
75156;SDS011;63736;50.076;8.198;2023-05-07T02:30:13;307.87;;;89.00;;
75156;SDS011;63736;50.076;8.198;2023-05-07T02:32:38;306.75;;;89.13;;
75156;SDS011;63736;50.076;8.198;2023-05-07T02:35:04;306.20;;;88.90;;
75156;SDS011;63736;50.076;8.198;2023-05-07T02:37:30;303.23;;;88.18;;
75156;SDS011;63736;50.076;8.198;2023-05-07T02:39:55;302.73;;;87.90;;
75156;SDS011;63736;50.076;8.198;2023-05-07T02:42:20;302.40;;;88.00;;
75156;SDS011;63736;50.076;8.198;2023-05-07T02:44:46;300.37;;;87.90;;
75156;SDS011;63736;50.076;8.198;2023-05-07T02:47:11;302.97;;;88.40;;
75156;SDS011;63736;50.076;8.198;2023-05-07T02:49:38;300.85;;;88.20;;
75156;SDS011;63736;50.076;8.198;2023-05-07T02:52:03;299.07;;;87.57;;
75156;SDS011;63736;50.076;8.198;2023-05-07T02:54:28;300.53;;;88.53;;
75156;SDS011;63736;50.076;8.198;2023-05-07T02:56:53;299.73;;;87.57;;
75156;SDS011;63736;50.076;8.198;2023-05-07T02:59:19;300.83;;;88.00;;
75156;SDS011;63736;50.076;8.198;2023-05-07T03:01:44;298.80;;;87.10;;
75156;SDS011;63736;50.076;8.198;2023-05-07T03:04:10;299.93;;;87.83;;
75156;SDS011;63736;50.076;8.198;2023-05-07T03:06:35;297.87;;;87.33;;
75156;SDS011;63736;50.076;8.198;2023-05-07T03:09:00;298.07;;;87.30;;
75156;SDS011;63736;50.076;8.198;2023-05-07T03:11:26;297.60;;;87.33;;
75156;SDS011;63736;50.076;8.198;2023-05-07T03:13:51;294.30;;;86.60;;
75156;SDS011;63736;50.076;8.198;2023-05-07T03:16:16;298.13;;;87.10;;
75156;SDS011;63736;50.076;8.198;2023-05-07T03:18:41;295.33;;;86.57;;
75156;SDS011;63736;50.076;8.198;2023-05-07T03:21:07;297.03;;;87.17;;
75156;SDS011;63736;50.076;8.198;2023-05-07T03:23:32;297.33;;;87.40;;
75156;SDS011;63736;50.076;8.198;2023-05-07T03:25:57;294.97;;;86.80;;
75156;SDS011;63736;50.076;8.198;2023-05-07T03:28:23;294.93;;;86.10;;
75156;SDS011;63736;50.076;8.198;2023-05-07T03:30:48;298.17;;;87.17;;
75156;SDS011;63736;50.076;8.198;2023-05-07T03:33:13;295.60;;;86.53;;
75156;SDS011;63736;50.076;8.198;2023-05-07T03:35:38;295.80;;;86.80;;
75156;SDS011;63736;50.076;8.198;2023-05-07T03:38:04;295.80;;;86.70;;
75156;SDS011;63736;50.076;8.198;2023-05-07T03:40:29;294.90;;;86.70;;
75156;SDS011;63736;50.076;8.198;2023-05-07T03:42:55;293.67;;;86.10;;
75156;SDS011;63736;50.076;8.198;2023-05-07T03:45:20;295.50;;;86.07;;
75156;SDS011;63736;50.076;8.198;2023-05-07T03:47:45;295.87;;;86.77;;
75156;SDS011;63736;50.076;8.198;2023-05-07T03:50:10;294.33;;;86.33;;
75156;SDS011;63736;50.076;8.198;2023-05-07T03:52:36;293.40;;;86.13;;
75156;SDS011;63736;50.076;8.198;2023-05-07T03:55:01;293.63;;;86.53;;
75156;SDS011;63736;50.076;8.198;2023-05-07T03:57:26;294.23;;;87.03;;
75156;SDS011;63736;50.076;8.198;2023-05-07T03:59:51;294.50;;;87.67;;
75156;SDS011;63736;50.076;8.198;2023-05-07T04:02:17;291.90;;;86.13;;
75156;SDS011;63736;50.076;8.198;2023-05-07T04:04:42;291.17;;;85.72;;
75156;SDS011;63736;50.076;8.198;2023-05-07T04:07:07;292.63;;;86.37;;
75156;SDS011;63736;50.076;8.198;2023-05-07T04:09:32;291.67;;;86.20;;
75156;SDS011;63736;50.076;8.198;2023-05-07T04:11:58;295.30;;;86.97;;
75156;SDS011;63736;50.076;8.198;2023-05-07T04:14:23;292.27;;;86.43;;
75156;SDS011;63736;50.076;8.198;2023-05-07T04:16:48;290.63;;;86.47;;
75156;SDS011;63736;50.076;8.198;2023-05-07T04:19:13;287.60;;;85.13;;
75156;SDS011;63736;50.076;8.198;2023-05-07T04:21:39;288.10;;;85.33;;
75156;SDS011;63736;50.076;8.198;2023-05-07T04:24:05;289.83;;;86.80;;
75156;SDS011;63736;50.076;8.198;2023-05-07T04:26:30;288.67;;;85.57;;
75156;SDS011;63736;50.076;8.198;2023-05-07T04:28:56;286.25;;;85.90;;
75156;SDS011;63736;50.076;8.198;2023-05-07T04:31:24;282.90;;;84.38;;
75156;SDS011;63736;50.076;8.198;2023-05-07T04:33:49;283.20;;;84.93;;
75156;SDS011;63736;50.076;8.198;2023-05-07T04:36:15;282.60;;;85.20;;
75156;SDS011;63736;50.076;8.198;2023-05-07T04:38:41;281.90;;;84.90;;
75156;SDS011;63736;50.076;8.198;2023-05-07T04:41:06;279.33;;;84.20;;
75156;SDS011;63736;50.076;8.198;2023-05-07T04:43:31;280.60;;;84.13;;
75156;SDS011;63736;50.076;8.198;2023-05-07T04:45:57;279.27;;;83.97;;
75156;SDS011;63736;50.076;8.198;2023-05-07T04:48:22;277.97;;;83.77;;
75156;SDS011;63736;50.076;8.198;2023-05-07T04:50:48;278.57;;;83.67;;
75156;SDS011;63736;50.076;8.198;2023-05-07T04:53:14;279.07;;;84.20;;
75156;SDS011;63736;50.076;8.198;2023-05-07T04:55:39;279.27;;;84.47;;
75156;SDS011;63736;50.076;8.198;2023-05-07T04:58:05;275.90;;;84.13;;
75156;SDS011;63736;50.076;8.198;2023-05-07T05:00:30;273.53;;;83.03;;
75156;SDS011;63736;50.076;8.198;2023-05-07T05:02:56;271.97;;;82.60;;
75156;SDS011;63736;50.076;8.198;2023-05-07T05:05:21;274.37;;;84.10;;
75156;SDS011;63736;50.076;8.198;2023-05-07T05:07:46;283.80;;;85.32;;
75156;SDS011;63736;50.076;8.198;2023-05-07T05:10:12;283.67;;;85.23;;
75156;SDS011;63736;50.076;8.198;2023-05-07T05:12:37;281.77;;;85.00;;
75156;SDS011;63736;50.076;8.198;2023-05-07T05:15:03;276.63;;;83.87;;
75156;SDS011;63736;50.076;8.198;2023-05-07T05:17:29;269.23;;;82.53;;
75156;SDS011;63736;50.076;8.198;2023-05-07T05:19:54;270.03;;;83.10;;
75156;SDS011;63736;50.076;8.198;2023-05-07T05:22:19;269.83;;;83.80;;
75156;SDS011;63736;50.076;8.198;2023-05-07T05:24:45;267.83;;;82.17;;
75156;SDS011;63736;50.076;8.198;2023-05-07T05:27:10;269.67;;;82.50;;
75156;SDS011;63736;50.076;8.198;2023-05-07T05:29:35;274.50;;;83.00;;
75156;SDS011;63736;50.076;8.198;2023-05-07T05:32:01;267.83;;;82.87;;
75156;SDS011;63736;50.076;8.198;2023-05-07T05:34:26;265.23;;;82.00;;
75156;SDS011;63736;50.076;8.198;2023-05-07T05:36:52;258.83;;;80.75;;
75156;SDS011;63736;50.076;8.198;2023-05-07T05:39:17;250.57;;;79.17;;
75156;SDS011;63736;50.076;8.198;2023-05-07T05:41:43;234.93;;;76.20;;
75156;SDS011;63736;50.076;8.198;2023-05-07T05:44:08;221.73;;;74.03;;
75156;SDS011;63736;50.076;8.198;2023-05-07T05:46:33;218.60;;;73.50;;
75156;SDS011;63736;50.076;8.198;2023-05-07T05:48:59;226.55;;;75.90;;
75156;SDS011;63736;50.076;8.198;2023-05-07T05:51:25;243.23;;;78.47;;
75156;SDS011;63736;50.076;8.198;2023-05-07T05:53:51;265.13;;;82.38;;
75156;SDS011;63736;50.076;8.198;2023-05-07T05:56:16;326.73;;;94.47;;
75156;SDS011;63736;50.076;8.198;2023-05-07T05:58:42;342.03;;;96.43;;
75156;SDS011;63736;50.076;8.198;2023-05-07T06:01:09;339.48;;;96.35;;
75156;SDS011;63736;50.076;8.198;2023-05-07T06:03:36;345.83;;;98.10;;
75156;SDS011;63736;50.076;8.198;2023-05-07T06:06:01;401.40;;;107.30;;
75156;SDS011;63736;50.076;8.198;2023-05-07T06:08:30;334.90;;;95.93;;
75156;SDS011;63736;50.076;8.198;2023-05-07T06:10:55;422.48;;;110.43;;
75156;SDS011;63736;50.076;8.198;2023-05-07T06:13:21;310.15;;;93.03;;
75156;SDS011;63736;50.076;8.198;2023-05-07T06:15:47;315.77;;;94.15;;
75156;SDS011;63736;50.076;8.198;2023-05-07T06:18:13;263.27;;;84.77;;
75156;SDS011;63736;50.076;8.198;2023-05-07T06:20:38;113.10;;;55.50;;
75156;SDS011;63736;50.076;8.198;2023-05-07T06:23:04;188.57;;;70.90;;
75156;SDS011;63736;50.076;8.198;2023-05-07T06:25:29;144.03;;;63.10;;
75156;SDS011;63736;50.076;8.198;2023-05-07T06:27:54;106.30;;;54.57;;
75156;SDS011;63736;50.076;8.198;2023-05-07T06:30:19;75.33;;;45.27;;
75156;SDS011;63736;50.076;8.198;2023-05-07T06:32:45;56.43;;;36.13;;
75156;SDS011;63736;50.076;8.198;2023-05-07T06:35:10;47.77;;;31.47;;
75156;SDS011;63736;50.076;8.198;2023-05-07T06:37:35;46.67;;;30.13;;
75156;SDS011;63736;50.076;8.198;2023-05-07T06:40:03;38.58;;;23.95;;
75156;SDS011;63736;50.076;8.198;2023-05-07T06:42:29;34.15;;;20.02;;
75156;SDS011;63736;50.076;8.198;2023-05-07T06:44:54;83.00;;;47.47;;
75156;SDS011;63736;50.076;8.198;2023-05-07T06:47:20;135.20;;;60.47;;
75156;SDS011;63736;50.076;8.198;2023-05-07T06:49:45;245.63;;;82.67;;
75156;SDS011;63736;50.076;8.198;2023-05-07T06:52:10;177.90;;;70.13;;
75156;SDS011;63736;50.076;8.198;2023-05-07T06:54:36;218.90;;;77.40;;
75156;SDS011;63736;50.076;8.198;2023-05-07T06:57:01;196.40;;;73.27;;
75156;SDS011;63736;50.076;8.198;2023-05-07T06:59:26;179.93;;;69.10;;
75156;SDS011;63736;50.076;8.198;2023-05-07T07:01:51;146.47;;;63.37;;
75156;SDS011;63736;50.076;8.198;2023-05-07T07:04:17;133.77;;;59.97;;
75156;SDS011;63736;50.076;8.198;2023-05-07T07:06:42;86.17;;;46.27;;
75156;SDS011;63736;50.076;8.198;2023-05-07T07:09:07;102.30;;;52.80;;
75156;SDS011;63736;50.076;8.198;2023-05-07T07:11:32;110.23;;;55.80;;
75156;SDS011;63736;50.076;8.198;2023-05-07T07:13:58;114.63;;;56.43;;
75156;SDS011;63736;50.076;8.198;2023-05-07T07:16:24;119.28;;;56.95;;
75156;SDS011;63736;50.076;8.198;2023-05-07T07:18:49;179.83;;;68.63;;
75156;SDS011;63736;50.076;8.198;2023-05-07T07:21:14;221.47;;;77.63;;
75156;SDS011;63736;50.076;8.198;2023-05-07T07:23:39;224.70;;;77.87;;
75156;SDS011;63736;50.076;8.198;2023-05-07T07:26:05;229.65;;;78.78;;
75156;SDS011;63736;50.076;8.198;2023-05-07T07:28:31;227.27;;;77.15;;
75156;SDS011;63736;50.076;8.198;2023-05-07T07:30:56;236.63;;;79.53;;
75156;SDS011;63736;50.076;8.198;2023-05-07T07:33:22;238.97;;;79.60;;
75156;SDS011;63736;50.076;8.198;2023-05-07T07:35:47;241.83;;;80.80;;
75156;SDS011;63736;50.076;8.198;2023-05-07T07:38:12;244.73;;;80.87;;
75156;SDS011;63736;50.076;8.198;2023-05-07T07:40:38;246.17;;;80.63;;
75156;SDS011;63736;50.076;8.198;2023-05-07T07:43:04;245.35;;;80.78;;
75156;SDS011;63736;50.076;8.198;2023-05-07T07:45:29;245.80;;;81.17;;
75156;SDS011;63736;50.076;8.198;2023-05-07T07:47:55;240.63;;;80.40;;
75156;SDS011;63736;50.076;8.198;2023-05-07T07:50:20;236.60;;;79.53;;
75156;SDS011;63736;50.076;8.198;2023-05-07T07:52:45;233.50;;;79.50;;
75156;SDS011;63736;50.076;8.198;2023-05-07T07:55:11;230.60;;;78.23;;
75156;SDS011;63736;50.076;8.198;2023-05-07T07:57:37;229.35;;;78.22;;
75156;SDS011;63736;50.076;8.198;2023-05-07T08:00:02;231.77;;;78.57;;
75156;SDS011;63736;50.076;8.198;2023-05-07T08:02:28;224.77;;;77.53;;
75156;SDS011;63736;50.076;8.198;2023-05-07T08:04:54;221.17;;;76.90;;
75156;SDS011;63736;50.076;8.198;2023-05-07T08:07:20;215.13;;;75.55;;
75156;SDS011;63736;50.076;8.198;2023-05-07T08:09:47;215.88;;;76.40;;
75156;SDS011;63736;50.076;8.198;2023-05-07T08:12:13;213.23;;;74.97;;
75156;SDS011;63736;50.076;8.198;2023-05-07T08:14:38;212.43;;;75.10;;
75156;SDS011;63736;50.076;8.198;2023-05-07T08:17:03;208.47;;;74.67;;
75156;SDS011;63736;50.076;8.198;2023-05-07T08:19:29;205.80;;;74.77;;
75156;SDS011;63736;50.076;8.198;2023-05-07T08:21:54;196.83;;;72.53;;
75156;SDS011;63736;50.076;8.198;2023-05-07T08:24:20;198.40;;;72.88;;
75156;SDS011;63736;50.076;8.198;2023-05-07T08:26:46;190.70;;;71.90;;
75156;SDS011;63736;50.076;8.198;2023-05-07T08:29:11;187.07;;;71.10;;
75156;SDS011;63736;50.076;8.198;2023-05-07T08:31:36;180.50;;;69.82;;
75156;SDS011;63736;50.076;8.198;2023-05-07T08:34:03;170.93;;;67.90;;
75156;SDS011;63736;50.076;8.198;2023-05-07T08:36:29;157.25;;;65.10;;
75156;SDS011;63736;50.076;8.198;2023-05-07T08:38:54;154.77;;;64.90;;
75156;SDS011;63736;50.076;8.198;2023-05-07T08:41:19;150.73;;;63.77;;
75156;SDS011;63736;50.076;8.198;2023-05-07T08:43:47;143.35;;;62.65;;
75156;SDS011;63736;50.076;8.198;2023-05-07T08:46:17;213.82;;;77.07;;
75156;SDS011;63736;50.076;8.198;2023-05-07T08:48:44;177.63;;;70.20;;
75156;SDS011;63736;50.076;8.198;2023-05-07T08:51:13;120.00;;;57.67;;
75156;SDS011;63736;50.076;8.198;2023-05-07T08:53:40;93.05;;;50.80;;
75156;SDS011;63736;50.076;8.198;2023-05-07T08:56:07;64.95;;;37.92;;
75156;SDS011;63736;50.076;8.198;2023-05-07T08:58:33;63.53;;;38.53;;
75156;SDS011;63736;50.076;8.198;2023-05-07T09:00:58;40.73;;;23.53;;
75156;SDS011;63736;50.076;8.198;2023-05-07T09:03:28;31.48;;;15.15;;
75156;SDS011;63736;50.076;8.198;2023-05-07T09:05:53;29.30;;;12.73;;
75156;SDS011;63736;50.076;8.198;2023-05-07T09:08:19;28.45;;;9.52;;
75156;SDS011;63736;50.076;8.198;2023-05-07T09:10:50;26.60;;;9.73;;
75156;SDS011;63736;50.076;8.198;2023-05-07T09:13:15;26.67;;;9.97;;
75156;SDS011;63736;50.076;8.198;2023-05-07T09:15:40;28.67;;;10.38;;
75156;SDS011;63736;50.076;8.198;2023-05-07T09:18:05;28.00;;;10.00;;
75156;SDS011;63736;50.076;8.198;2023-05-07T09:20:35;31.93;;;12.80;;
75156;SDS011;63736;50.076;8.198;2023-05-07T09:23:01;50.92;;;29.02;;
75156;SDS011;63736;50.076;8.198;2023-05-07T09:25:30;72.93;;;43.53;;
75156;SDS011;63736;50.076;8.198;2023-05-07T09:27:57;74.35;;;43.15;;
75156;SDS011;63736;50.076;8.198;2023-05-07T09:30:23;88.93;;;48.00;;
75156;SDS011;63736;50.076;8.198;2023-05-07T09:32:51;85.20;;;48.13;;
75156;SDS011;63736;50.076;8.198;2023-05-07T09:35:17;93.07;;;50.93;;
75156;SDS011;63736;50.076;8.198;2023-05-07T09:37:43;102.88;;;54.88;;
75156;SDS011;63736;50.076;8.198;2023-05-07T09:40:08;108.68;;;56.72;;
75156;SDS011;63736;50.076;8.198;2023-05-07T09:42:46;143.70;;;65.57;;
75156;SDS011;63736;50.076;8.198;2023-05-07T09:45:12;127.45;;;62.17;;
75156;SDS011;63736;50.076;8.198;2023-05-07T09:47:37;117.53;;;59.53;;
75156;SDS011;63736;50.076;8.198;2023-05-07T09:50:04;97.45;;;53.53;;
75156;SDS011;63736;50.076;8.198;2023-05-07T09:52:33;68.78;;;42.33;;
75156;SDS011;63736;50.076;8.198;2023-05-07T09:55:00;57.78;;;34.92;;
75156;SDS011;63736;50.076;8.198;2023-05-07T09:57:27;55.20;;;32.08;;
75156;SDS011;63736;50.076;8.198;2023-05-07T09:59:53;53.60;;;31.37;;
75156;SDS011;63736;50.076;8.198;2023-05-07T10:02:21;47.10;;;27.02;;
75156;SDS011;63736;50.076;8.198;2023-05-07T10:04:49;47.90;;;27.95;;
75156;SDS011;63736;50.076;8.198;2023-05-07T10:07:16;48.45;;;29.52;;
75156;SDS011;63736;50.076;8.198;2023-05-07T10:09:42;49.50;;;29.60;;
75156;SDS011;63736;50.076;8.198;2023-05-07T10:12:09;53.10;;;31.73;;
75156;SDS011;63736;50.076;8.198;2023-05-07T10:14:34;57.17;;;35.10;;
75156;SDS011;63736;50.076;8.198;2023-05-07T10:17:00;56.33;;;34.37;;
75156;SDS011;63736;50.076;8.198;2023-05-07T10:19:27;57.92;;;36.72;;
75156;SDS011;63736;50.076;8.198;2023-05-07T10:21:55;55.78;;;34.70;;
75156;SDS011;63736;50.076;8.198;2023-05-07T10:24:34;58.63;;;36.50;;
75156;SDS011;63736;50.076;8.198;2023-05-07T10:27:02;63.50;;;39.93;;
75156;SDS011;63736;50.076;8.198;2023-05-07T10:35:04;77.37;;;45.77;;
75156;SDS011;63736;50.076;8.198;2023-05-07T10:37:35;84.82;;;48.95;;
75156;SDS011;63736;50.076;8.198;2023-05-07T10:40:01;91.33;;;50.67;;
75156;SDS011;63736;50.076;8.198;2023-05-07T10:42:27;88.57;;;50.43;;
75156;SDS011;63736;50.076;8.198;2023-05-07T10:44:52;87.83;;;49.33;;
75156;SDS011;63736;50.076;8.198;2023-05-07T10:47:17;87.68;;;49.67;;
75156;SDS011;63736;50.076;8.198;2023-05-07T10:52:15;83.97;;;49.77;;
75156;SDS011;63736;50.076;8.198;2023-05-07T10:54:45;85.97;;;50.50;;
75156;SDS011;63736;50.076;8.198;2023-05-07T11:00:00;90.50;;;51.33;;
75156;SDS011;63736;50.076;8.198;2023-05-07T11:05:25;98.20;;;52.90;;
75156;SDS011;63736;50.076;8.198;2023-05-07T11:08:10;92.30;;;51.83;;
75156;SDS011;63736;50.076;8.198;2023-05-07T11:10:54;91.28;;;52.60;;
75156;SDS011;63736;50.076;8.198;2023-05-07T11:16:16;95.35;;;52.28;;
75156;SDS011;63736;50.076;8.198;2023-05-07T11:18:51;100.33;;;54.07;;
75156;SDS011;63736;50.076;8.198;2023-05-07T11:21:34;95.57;;;52.55;;
75156;SDS011;63736;50.076;8.198;2023-05-07T11:24:07;97.38;;;53.95;;
75156;SDS011;63736;50.076;8.198;2023-05-07T11:26:48;92.35;;;51.92;;
75156;SDS011;63736;50.076;8.198;2023-05-07T11:29:18;91.10;;;51.15;;
75156;SDS011;63736;50.076;8.198;2023-05-07T11:31:48;88.87;;;50.30;;
75156;SDS011;63736;50.076;8.198;2023-05-07T11:34:15;83.32;;;48.72;;
75156;SDS011;63736;50.076;8.198;2023-05-07T11:36:46;79.03;;;47.97;;
75156;SDS011;63736;50.076;8.198;2023-05-07T11:41:50;78.30;;;47.05;;
75156;SDS011;63736;50.076;8.198;2023-05-07T11:44:15;70.87;;;43.30;;
75156;SDS011;63736;50.076;8.198;2023-05-07T11:46:43;69.17;;;42.10;;
75156;SDS011;63736;50.076;8.198;2023-05-07T11:49:09;66.90;;;39.88;;
75156;SDS011;63736;50.076;8.198;2023-05-07T11:51:37;62.63;;;38.63;;
75156;SDS011;63736;50.076;8.198;2023-05-07T11:54:03;61.05;;;37.08;;
75156;SDS011;63736;50.076;8.198;2023-05-07T11:56:33;58.17;;;36.27;;
75156;SDS011;63736;50.076;8.198;2023-05-07T11:59:00;51.97;;;32.97;;
75156;SDS011;63736;50.076;8.198;2023-05-07T12:01:25;53.63;;;34.35;;
75156;SDS011;63736;50.076;8.198;2023-05-07T12:03:51;52.83;;;32.53;;
75156;SDS011;63736;50.076;8.198;2023-05-07T12:06:16;52.20;;;33.40;;
75156;SDS011;63736;50.076;8.198;2023-05-07T12:08:43;50.83;;;31.60;;
75156;SDS011;63736;50.076;8.198;2023-05-07T12:11:10;51.83;;;32.00;;
75156;SDS011;63736;50.076;8.198;2023-05-07T12:13:38;50.08;;;30.63;;
75156;SDS011;63736;50.076;8.198;2023-05-07T12:16:05;47.05;;;29.00;;
75156;SDS011;63736;50.076;8.198;2023-05-07T12:18:30;42.70;;;25.48;;
75156;SDS011;63736;50.076;8.198;2023-05-07T12:20:56;46.10;;;27.40;;
75156;SDS011;63736;50.076;8.198;2023-05-07T12:23:22;42.28;;;25.58;;
75156;SDS011;63736;50.076;8.198;2023-05-07T12:25:48;47.60;;;27.90;;
75156;SDS011;63736;50.076;8.198;2023-05-07T12:28:14;39.88;;;22.88;;
75156;SDS011;63736;50.076;8.198;2023-05-07T12:30:43;40.00;;;22.10;;
75156;SDS011;63736;50.076;8.198;2023-05-07T12:33:11;43.15;;;24.25;;
75156;SDS011;63736;50.076;8.198;2023-05-07T12:35:37;39.15;;;22.15;;
75156;SDS011;63736;50.076;8.198;2023-05-07T12:38:06;41.00;;;21.77;;
75156;SDS011;63736;50.076;8.198;2023-05-07T12:40:36;35.33;;;18.00;;
75156;SDS011;63736;50.076;8.198;2023-05-07T12:43:04;35.47;;;19.65;;
75156;SDS011;63736;50.076;8.198;2023-05-07T12:45:29;35.17;;;18.67;;
75156;SDS011;63736;50.076;8.198;2023-05-07T12:47:55;36.10;;;20.17;;
75156;SDS011;63736;50.076;8.198;2023-05-07T12:50:21;36.27;;;19.13;;
75156;SDS011;63736;50.076;8.198;2023-05-07T12:52:49;40.70;;;24.20;;
75156;SDS011;63736;50.076;8.198;2023-05-07T12:55:15;41.00;;;24.35;;
75156;SDS011;63736;50.076;8.198;2023-05-07T12:57:42;40.08;;;23.05;;
75156;SDS011;63736;50.076;8.198;2023-05-07T13:00:10;42.17;;;25.05;;
75156;SDS011;63736;50.076;8.198;2023-05-07T13:02:39;40.57;;;23.40;;
75156;SDS011;63736;50.076;8.198;2023-05-07T13:05:06;40.47;;;24.83;;
75156;SDS011;63736;50.076;8.198;2023-05-07T13:07:32;43.45;;;27.00;;
75156;SDS011;63736;50.076;8.198;2023-05-07T13:09:57;44.60;;;26.30;;
75156;SDS011;63736;50.076;8.198;2023-05-07T13:12:22;40.70;;;24.23;;
75156;SDS011;63736;50.076;8.198;2023-05-07T13:14:48;43.50;;;25.37;;
75156;SDS011;63736;50.076;8.198;2023-05-07T13:17:13;43.97;;;26.93;;
75156;SDS011;63736;50.076;8.198;2023-05-07T13:19:38;45.40;;;26.57;;
75156;SDS011;63736;50.076;8.198;2023-05-07T13:22:03;39.22;;;22.48;;
75156;SDS011;63736;50.076;8.198;2023-05-07T13:24:29;42.20;;;23.30;;
75156;SDS011;63736;50.076;8.198;2023-05-07T13:26:54;42.63;;;25.53;;
75156;SDS011;63736;50.076;8.198;2023-05-07T13:29:20;39.53;;;23.37;;
75156;SDS011;63736;50.076;8.198;2023-05-07T13:31:50;38.22;;;20.75;;
75156;SDS011;63736;50.076;8.198;2023-05-07T13:34:18;38.67;;;20.60;;
75156;SDS011;63736;50.076;8.198;2023-05-07T13:36:43;34.28;;;17.77;;
75156;SDS011;63736;50.076;8.198;2023-05-07T13:39:09;35.70;;;18.53;;
75156;SDS011;63736;50.076;8.198;2023-05-07T13:41:34;34.63;;;16.43;;
75156;SDS011;63736;50.076;8.198;2023-05-07T13:44:00;32.90;;;16.13;;
75156;SDS011;63736;50.076;8.198;2023-05-07T13:46:25;33.77;;;16.77;;
75156;SDS011;63736;50.076;8.198;2023-05-07T13:48:50;33.40;;;14.90;;
75156;SDS011;63736;50.076;8.198;2023-05-07T13:51:16;33.93;;;16.00;;
75156;SDS011;63736;50.076;8.198;2023-05-07T13:53:41;33.10;;;16.42;;
75156;SDS011;63736;50.076;8.198;2023-05-07T13:56:07;33.57;;;15.67;;
75156;SDS011;63736;50.076;8.198;2023-05-07T13:58:32;35.70;;;17.07;;
75156;SDS011;63736;50.076;8.198;2023-05-07T14:00:57;32.97;;;15.23;;
75156;SDS011;63736;50.076;8.198;2023-05-07T14:03:22;32.87;;;15.23;;
75156;SDS011;63736;50.076;8.198;2023-05-07T14:05:48;32.23;;;15.13;;
75156;SDS011;63736;50.076;8.198;2023-05-07T14:08:13;34.10;;;17.03;;
75156;SDS011;63736;50.076;8.198;2023-05-07T14:10:44;33.92;;;17.58;;
75156;SDS011;63736;50.076;8.198;2023-05-07T14:13:09;33.10;;;16.73;;
75156;SDS011;63736;50.076;8.198;2023-05-07T14:15:35;36.80;;;21.88;;
75156;SDS011;63736;50.076;8.198;2023-05-07T14:18:01;35.90;;;19.55;;
75156;SDS011;63736;50.076;8.198;2023-05-07T14:20:27;38.20;;;20.87;;
75156;SDS011;63736;50.076;8.198;2023-05-07T14:22:52;39.37;;;19.70;;
75156;SDS011;63736;50.076;8.198;2023-05-07T14:25:17;36.93;;;19.47;;
75156;SDS011;63736;50.076;8.198;2023-05-07T14:27:42;41.13;;;22.63;;